sensor_id;sensor_type;location;lat;lon;timestamp;P1;durP1;ratioP1;P2;durP2;ratioP2
23310;SDS011;11828;51.508;18.118;2023-02-20T00:02:03;22.92;;;10.32;;
23310;SDS011;11828;51.508;18.118;2023-02-20T00:04:30;25.77;;;19.63;;
23310;SDS011;11828;51.508;18.118;2023-02-20T00:06:56;21.05;;;9.38;;
23310;SDS011;11828;51.508;18.118;2023-02-20T00:09:22;27.30;;;16.02;;
23310;SDS011;11828;51.508;18.118;2023-02-20T00:11:48;21.00;;;11.85;;
23310;SDS011;11828;51.508;18.118;2023-02-20T00:14:14;19.85;;;11.32;;
23310;SDS011;11828;51.508;18.118;2023-02-20T00:16:40;22.13;;;12.27;;
23310;SDS011;11828;51.508;18.118;2023-02-20T00:19:06;24.35;;;14.48;;
23310;SDS011;11828;51.508;18.118;2023-02-20T00:21:33;24.05;;;10.95;;
23310;SDS011;11828;51.508;18.118;2023-02-20T00:23:59;23.42;;;12.52;;
23310;SDS011;11828;51.508;18.118;2023-02-20T00:26:25;25.88;;;19.70;;
23310;SDS011;11828;51.508;18.118;2023-02-20T00:28:51;25.80;;;16.10;;
23310;SDS011;11828;51.508;18.118;2023-02-20T00:31:17;28.42;;;11.82;;
23310;SDS011;11828;51.508;18.118;2023-02-20T00:33:44;27.33;;;22.90;;
23310;SDS011;11828;51.508;18.118;2023-02-20T00:36:17;26.10;;;13.80;;
23310;SDS011;11828;51.508;18.118;2023-02-20T00:38:45;21.98;;;15.85;;
23310;SDS011;11828;51.508;18.118;2023-02-20T00:41:11;29.95;;;21.20;;
23310;SDS011;11828;51.508;18.118;2023-02-20T00:43:42;30.17;;;14.48;;
23310;SDS011;11828;51.508;18.118;2023-02-20T00:46:12;32.08;;;26.13;;
23310;SDS011;11828;51.508;18.118;2023-02-20T00:48:39;26.33;;;20.67;;
23310;SDS011;11828;51.508;18.118;2023-02-20T00:51:05;24.20;;;15.68;;
23310;SDS011;11828;51.508;18.118;2023-02-20T00:53:31;33.47;;;18.38;;
23310;SDS011;11828;51.508;18.118;2023-02-20T00:55:57;31.00;;;26.88;;
23310;SDS011;11828;51.508;18.118;2023-02-20T00:58:24;26.75;;;18.98;;
23310;SDS011;11828;51.508;18.118;2023-02-20T01:00:50;22.10;;;12.60;;
23310;SDS011;11828;51.508;18.118;2023-02-20T01:03:16;29.10;;;21.70;;
23310;SDS011;11828;51.508;18.118;2023-02-20T01:05:42;35.95;;;15.68;;
23310;SDS011;11828;51.508;18.118;2023-02-20T01:08:09;35.00;;;19.75;;
23310;SDS011;11828;51.508;18.118;2023-02-20T01:10:35;25.77;;;12.60;;
23310;SDS011;11828;51.508;18.118;2023-02-20T01:13:01;25.30;;;12.90;;
23310;SDS011;11828;51.508;18.118;2023-02-20T01:15:27;23.85;;;12.20;;
23310;SDS011;11828;51.508;18.118;2023-02-20T01:17:53;33.15;;;25.17;;
23310;SDS011;11828;51.508;18.118;2023-02-20T01:20:19;26.38;;;17.15;;
23310;SDS011;11828;51.508;18.118;2023-02-20T01:22:46;21.33;;;13.23;;
23310;SDS011;11828;51.508;18.118;2023-02-20T01:25:12;25.67;;;20.67;;
23310;SDS011;11828;51.508;18.118;2023-02-20T01:27:38;22.25;;;13.75;;
23310;SDS011;11828;51.508;18.118;2023-02-20T01:30:05;33.50;;;29.00;;
23310;SDS011;11828;51.508;18.118;2023-02-20T01:32:33;28.00;;;21.27;;
23310;SDS011;11828;51.508;18.118;2023-02-20T01:34:59;29.27;;;22.58;;
23310;SDS011;11828;51.508;18.118;2023-02-20T01:37:25;29.17;;;21.55;;
23310;SDS011;11828;51.508;18.118;2023-02-20T01:39:51;32.67;;;27.23;;
23310;SDS011;11828;51.508;18.118;2023-02-20T01:42:19;27.98;;;22.38;;
23310;SDS011;11828;51.508;18.118;2023-02-20T01:44:48;28.08;;;17.52;;
23310;SDS011;11828;51.508;18.118;2023-02-20T01:47:15;23.48;;;18.52;;
23310;SDS011;11828;51.508;18.118;2023-02-20T01:49:50;28.52;;;18.17;;
23310;SDS011;11828;51.508;18.118;2023-02-20T01:52:24;29.35;;;22.60;;
23310;SDS011;11828;51.508;18.118;2023-02-20T01:57:29;34.42;;;29.08;;
23310;SDS011;11828;51.508;18.118;2023-02-20T02:00:07;15.90;;;13.40;;
23310;SDS011;11828;51.508;18.118;2023-02-20T02:02:38;25.63;;;20.50;;
23310;SDS011;11828;51.508;18.118;2023-02-20T02:05:16;39.75;;;21.42;;
23310;SDS011;11828;51.508;18.118;2023-02-20T02:07:43;25.98;;;23.35;;
23310;SDS011;11828;51.508;18.118;2023-02-20T02:10:11;34.22;;;28.67;;
23310;SDS011;11828;51.508;18.118;2023-02-20T02:12:44;32.78;;;25.73;;
23310;SDS011;11828;51.508;18.118;2023-02-20T02:15:14;40.38;;;34.72;;
23310;SDS011;11828;51.508;18.118;2023-02-20T02:30:07;23.67;;;21.13;;
23310;SDS011;11828;51.508;18.118;2023-02-20T02:32:55;32.88;;;24.90;;
23310;SDS011;11828;51.508;18.118;2023-02-20T02:38:29;23.83;;;13.50;;
23310;SDS011;11828;51.508;18.118;2023-02-20T02:41:25;21.08;;;13.77;;
23310;SDS011;11828;51.508;18.118;2023-02-20T02:44:15;22.38;;;18.10;;
23310;SDS011;11828;51.508;18.118;2023-02-20T02:49:40;21.05;;;14.63;;
23310;SDS011;11828;51.508;18.118;2023-02-20T02:52:23;39.53;;;35.28;;
23310;SDS011;11828;51.508;18.118;2023-02-20T02:55:14;30.15;;;20.35;;
23310;SDS011;11828;51.508;18.118;2023-02-20T02:57:52;33.75;;;26.20;;
23310;SDS011;11828;51.508;18.118;2023-02-20T03:00:30;74.97;;;41.30;;
23310;SDS011;11828;51.508;18.118;2023-02-20T03:06:02;40.50;;;36.42;;
23310;SDS011;11828;51.508;18.118;2023-02-20T03:08:42;38.78;;;34.47;;
23310;SDS011;11828;51.508;18.118;2023-02-20T03:11:18;62.75;;;49.85;;
23310;SDS011;11828;51.508;18.118;2023-02-20T03:13:50;38.58;;;34.55;;
23310;SDS011;11828;51.508;18.118;2023-02-20T03:19:55;43.22;;;34.42;;
23310;SDS011;11828;51.508;18.118;2023-02-20T03:22:33;45.97;;;41.13;;
23310;SDS011;11828;51.508;18.118;2023-02-20T03:25:11;32.35;;;28.10;;
23310;SDS011;11828;51.508;18.118;2023-02-20T03:27:46;59.38;;;45.15;;
23310;SDS011;11828;51.508;18.118;2023-02-20T03:32:55;60.22;;;53.75;;
23310;SDS011;11828;51.508;18.118;2023-02-20T03:35:50;51.03;;;45.92;;
23310;SDS011;11828;51.508;18.118;2023-02-20T03:38:37;41.17;;;35.97;;
23310;SDS011;11828;51.508;18.118;2023-02-20T03:41:26;55.83;;;49.92;;
23310;SDS011;11828;51.508;18.118;2023-02-20T03:44:12;41.00;;;36.22;;
23310;SDS011;11828;51.508;18.118;2023-02-20T03:46:42;46.85;;;41.25;;
23310;SDS011;11828;51.508;18.118;2023-02-20T03:49:12;56.10;;;49.55;;
23310;SDS011;11828;51.508;18.118;2023-02-20T03:52:02;51.45;;;46.42;;
23310;SDS011;11828;51.508;18.118;2023-02-20T03:54:29;48.58;;;43.58;;
23310;SDS011;11828;51.508;18.118;2023-02-20T03:57:31;38.25;;;31.13;;
23310;SDS011;11828;51.508;18.118;2023-02-20T04:00:04;38.22;;;34.28;;
23310;SDS011;11828;51.508;18.118;2023-02-20T04:02:38;57.60;;;35.35;;
23310;SDS011;11828;51.508;18.118;2023-02-20T04:05:31;40.33;;;36.15;;
23310;SDS011;11828;51.508;18.118;2023-02-20T04:13:22;52.15;;;41.92;;
23310;SDS011;11828;51.508;18.118;2023-02-20T04:15:50;34.05;;;30.55;;
23310;SDS011;11828;51.508;18.118;2023-02-20T04:18:18;38.58;;;32.72;;
23310;SDS011;11828;51.508;18.118;2023-02-20T04:20:46;40.28;;;35.70;;
23310;SDS011;11828;51.508;18.118;2023-02-20T04:23:19;33.40;;;28.67;;
23310;SDS011;11828;51.508;18.118;2023-02-20T04:25:50;32.88;;;29.27;;
23310;SDS011;11828;51.508;18.118;2023-02-20T04:28:20;51.10;;;40.28;;
23310;SDS011;11828;51.508;18.118;2023-02-20T04:30:48;44.40;;;36.22;;
23310;SDS011;11828;51.508;18.118;2023-02-20T04:33:16;41.47;;;36.97;;
23310;SDS011;11828;51.508;18.118;2023-02-20T04:35:42;58.72;;;30.75;;
23310;SDS011;11828;51.508;18.118;2023-02-20T04:38:09;35.67;;;32.15;;
23310;SDS011;11828;51.508;18.118;2023-02-20T04:40:35;37.70;;;31.88;;
23310;SDS011;11828;51.508;18.118;2023-02-20T04:43:02;37.10;;;33.17;;
23310;SDS011;11828;51.508;18.118;2023-02-20T04:45:28;42.40;;;37.88;;
23310;SDS011;11828;51.508;18.118;2023-02-20T04:47:54;33.15;;;24.02;;
23310;SDS011;11828;51.508;18.118;2023-02-20T04:50:22;37.10;;;33.17;;
23310;SDS011;11828;51.508;18.118;2023-02-20T04:52:55;50.25;;;26.88;;
23310;SDS011;11828;51.508;18.118;2023-02-20T04:55:22;51.05;;;36.92;;
23310;SDS011;11828;51.508;18.118;2023-02-20T04:57:49;59.17;;;36.67;;
23310;SDS011;11828;51.508;18.118;2023-02-20T05:00:18;59.30;;;37.40;;
23310;SDS011;11828;51.508;18.118;2023-02-20T05:02:45;38.03;;;33.95;;
23310;SDS011;11828;51.508;18.118;2023-02-20T05:05:19;37.13;;;33.10;;
23310;SDS011;11828;51.508;18.118;2023-02-20T05:07:53;32.88;;;27.17;;
23310;SDS011;11828;51.508;18.118;2023-02-20T05:10:22;52.97;;;32.90;;
23310;SDS011;11828;51.508;18.118;2023-02-20T05:12:50;46.90;;;37.28;;
23310;SDS011;11828;51.508;18.118;2023-02-20T05:15:17;68.50;;;48.03;;
23310;SDS011;11828;51.508;18.118;2023-02-20T05:17:44;61.00;;;47.67;;
23310;SDS011;11828;51.508;18.118;2023-02-20T05:20:11;70.40;;;53.95;;
23310;SDS011;11828;51.508;18.118;2023-02-20T05:22:39;78.95;;;59.83;;
23310;SDS011;11828;51.508;18.118;2023-02-20T05:25:05;60.50;;;51.63;;
23310;SDS011;11828;51.508;18.118;2023-02-20T05:27:32;61.25;;;53.35;;
23310;SDS011;11828;51.508;18.118;2023-02-20T05:29:59;54.50;;;49.10;;
23310;SDS011;11828;51.508;18.118;2023-02-20T05:32:27;77.38;;;53.88;;
23310;SDS011;11828;51.508;18.118;2023-02-20T05:34:54;69.72;;;59.00;;
23310;SDS011;11828;51.508;18.118;2023-02-20T05:37:21;65.60;;;58.30;;
23310;SDS011;11828;51.508;18.118;2023-02-20T05:39:49;69.40;;;56.95;;
23310;SDS011;11828;51.508;18.118;2023-02-20T05:42:16;73.18;;;56.97;;
23310;SDS011;11828;51.508;18.118;2023-02-20T05:44:43;70.70;;;57.40;;
23310;SDS011;11828;51.508;18.118;2023-02-20T05:47:10;77.45;;;58.80;;
23310;SDS011;11828;51.508;18.118;2023-02-20T05:49:36;91.40;;;62.10;;
23310;SDS011;11828;51.508;18.118;2023-02-20T05:52:03;91.85;;;61.72;;
23310;SDS011;11828;51.508;18.118;2023-02-20T05:54:37;112.15;;;67.95;;
23310;SDS011;11828;51.508;18.118;2023-02-20T05:57:04;114.30;;;65.63;;
23310;SDS011;11828;51.508;18.118;2023-02-20T05:59:30;94.25;;;61.60;;
23310;SDS011;11828;51.508;18.118;2023-02-20T06:01:57;88.57;;;58.63;;
23310;SDS011;11828;51.508;18.118;2023-02-20T06:04:24;86.97;;;56.00;;
23310;SDS011;11828;51.508;18.118;2023-02-20T06:06:51;102.20;;;65.45;;
23310;SDS011;11828;51.508;18.118;2023-02-20T06:09:17;95.22;;;65.93;;
23310;SDS011;11828;51.508;18.118;2023-02-20T06:11:47;99.57;;;63.22;;
23310;SDS011;11828;51.508;18.118;2023-02-20T06:14:19;97.43;;;66.63;;
23310;SDS011;11828;51.508;18.118;2023-02-20T06:16:48;91.45;;;64.35;;
23310;SDS011;11828;51.508;18.118;2023-02-20T06:19:17;93.70;;;56.80;;
23310;SDS011;11828;51.508;18.118;2023-02-20T06:21:47;92.55;;;65.60;;
23310;SDS011;11828;51.508;18.118;2023-02-20T06:24:15;95.55;;;67.47;;
23310;SDS011;11828;51.508;18.118;2023-02-20T06:26:42;100.00;;;64.88;;
23310;SDS011;11828;51.508;18.118;2023-02-20T06:29:09;93.25;;;68.32;;
23310;SDS011;11828;51.508;18.118;2023-02-20T06:31:36;137.27;;;72.30;;
23310;SDS011;11828;51.508;18.118;2023-02-20T06:34:02;81.90;;;65.05;;
23310;SDS011;11828;51.508;18.118;2023-02-20T06:36:31;71.45;;;59.42;;
23310;SDS011;11828;51.508;18.118;2023-02-20T06:39:00;58.30;;;48.72;;
23310;SDS011;11828;51.508;18.118;2023-02-20T06:41:27;69.63;;;60.28;;
23310;SDS011;11828;51.508;18.118;2023-02-20T06:43:53;71.47;;;53.25;;
23310;SDS011;11828;51.508;18.118;2023-02-20T06:46:20;77.60;;;58.25;;
23310;SDS011;11828;51.508;18.118;2023-02-20T06:48:48;85.50;;;63.42;;
23310;SDS011;11828;51.508;18.118;2023-02-20T06:51:18;73.40;;;57.35;;
23310;SDS011;11828;51.508;18.118;2023-02-20T06:53:46;70.50;;;50.72;;
23310;SDS011;11828;51.508;18.118;2023-02-20T06:56:16;59.65;;;53.25;;
23310;SDS011;11828;51.508;18.118;2023-02-20T06:58:50;80.03;;;52.47;;
23310;SDS011;11828;51.508;18.118;2023-02-20T07:01:18;79.90;;;55.20;;
23310;SDS011;11828;51.508;18.118;2023-02-20T07:03:46;58.65;;;51.80;;
23310;SDS011;11828;51.508;18.118;2023-02-20T07:06:15;74.32;;;57.95;;
23310;SDS011;11828;51.508;18.118;2023-02-20T07:08:42;80.22;;;54.97;;
23310;SDS011;11828;51.508;18.118;2023-02-20T07:11:08;62.38;;;51.53;;
23310;SDS011;11828;51.508;18.118;2023-02-20T07:13:34;82.70;;;59.63;;
23310;SDS011;11828;51.508;18.118;2023-02-20T07:16:01;70.78;;;59.08;;
23310;SDS011;11828;51.508;18.118;2023-02-20T07:18:27;68.90;;;52.60;;
23310;SDS011;11828;51.508;18.118;2023-02-20T07:20:53;68.00;;;53.47;;
23310;SDS011;11828;51.508;18.118;2023-02-20T07:23:20;55.63;;;49.60;;
23310;SDS011;11828;51.508;18.118;2023-02-20T07:25:47;58.78;;;45.40;;
23310;SDS011;11828;51.508;18.118;2023-02-20T07:28:15;50.65;;;45.15;;
23310;SDS011;11828;51.508;18.118;2023-02-20T07:30:43;66.53;;;47.17;;
23310;SDS011;11828;51.508;18.118;2023-02-20T07:33:13;54.75;;;42.45;;
23310;SDS011;11828;51.508;18.118;2023-02-20T07:35:41;45.72;;;36.80;;
23310;SDS011;11828;51.508;18.118;2023-02-20T07:38:07;43.13;;;33.63;;
23310;SDS011;11828;51.508;18.118;2023-02-20T07:40:34;40.58;;;31.73;;
23310;SDS011;11828;51.508;18.118;2023-02-20T07:43:00;35.78;;;27.65;;
23310;SDS011;11828;51.508;18.118;2023-02-20T07:45:26;41.35;;;30.92;;
23310;SDS011;11828;51.508;18.118;2023-02-20T07:47:52;41.85;;;31.00;;
23310;SDS011;11828;51.508;18.118;2023-02-20T07:50:18;30.88;;;19.83;;
23310;SDS011;11828;51.508;18.118;2023-02-20T07:52:45;24.00;;;18.10;;
23310;SDS011;11828;51.508;18.118;2023-02-20T07:55:12;27.33;;;16.80;;
23310;SDS011;11828;51.508;18.118;2023-02-20T07:57:40;32.70;;;24.88;;
23310;SDS011;11828;51.508;18.118;2023-02-20T08:00:08;37.22;;;25.00;;
23310;SDS011;11828;51.508;18.118;2023-02-20T08:02:37;43.22;;;28.17;;
23310;SDS011;11828;51.508;18.118;2023-02-20T08:05:03;52.03;;;29.42;;
23310;SDS011;11828;51.508;18.118;2023-02-20T08:07:29;54.78;;;42.20;;
23310;SDS011;11828;51.508;18.118;2023-02-20T08:09:56;55.83;;;49.92;;
23310;SDS011;11828;51.508;18.118;2023-02-20T08:12:22;72.25;;;54.97;;
23310;SDS011;11828;51.508;18.118;2023-02-20T08:14:49;55.40;;;47.05;;
23310;SDS011;11828;51.508;18.118;2023-02-20T08:17:16;61.58;;;49.72;;
23310;SDS011;11828;51.508;18.118;2023-02-20T08:19:43;58.00;;;51.40;;
23310;SDS011;11828;51.508;18.118;2023-02-20T08:22:09;71.82;;;56.03;;
23310;SDS011;11828;51.508;18.118;2023-02-20T08:24:36;79.30;;;53.50;;
23310;SDS011;11828;51.508;18.118;2023-02-20T08:27:03;64.95;;;57.83;;
23310;SDS011;11828;51.508;18.118;2023-02-20T08:29:29;93.10;;;67.95;;
23310;SDS011;11828;51.508;18.118;2023-02-20T08:31:55;83.22;;;67.75;;
23310;SDS011;11828;51.508;18.118;2023-02-20T08:34:22;85.90;;;63.33;;
23310;SDS011;11828;51.508;18.118;2023-02-20T08:36:48;114.85;;;72.50;;
23310;SDS011;11828;51.508;18.118;2023-02-20T08:39:14;90.50;;;64.57;;
23310;SDS011;11828;51.508;18.118;2023-02-20T08:41:41;87.28;;;62.72;;
23310;SDS011;11828;51.508;18.118;2023-02-20T08:44:09;75.55;;;63.70;;
23310;SDS011;11828;51.508;18.118;2023-02-20T08:46:36;87.68;;;59.00;;
23310;SDS011;11828;51.508;18.118;2023-02-20T08:49:02;93.20;;;58.67;;
23310;SDS011;11828;51.508;18.118;2023-02-20T08:51:28;73.28;;;57.80;;
23310;SDS011;11828;51.508;18.118;2023-02-20T08:53:55;91.88;;;72.25;;
23310;SDS011;11828;51.508;18.118;2023-02-20T08:56:21;93.20;;;66.03;;
23310;SDS011;11828;51.508;18.118;2023-02-20T08:58:47;95.18;;;69.82;;
23310;SDS011;11828;51.508;18.118;2023-02-20T09:01:13;85.00;;;61.33;;
23310;SDS011;11828;51.508;18.118;2023-02-20T09:03:40;100.05;;;70.95;;
23310;SDS011;11828;51.508;18.118;2023-02-20T09:06:07;89.90;;;66.57;;
23310;SDS011;11828;51.508;18.118;2023-02-20T09:08:34;87.75;;;62.53;;
23310;SDS011;11828;51.508;18.118;2023-02-20T09:11:00;119.97;;;78.88;;
23310;SDS011;11828;51.508;18.118;2023-02-20T09:13:26;96.15;;;70.20;;
23310;SDS011;11828;51.508;18.118;2023-02-20T09:15:52;134.48;;;73.78;;
23310;SDS011;11828;51.508;18.118;2023-02-20T09:18:19;127.65;;;72.05;;
23310;SDS011;11828;51.508;18.118;2023-02-20T09:20:45;124.88;;;75.47;;
23310;SDS011;11828;51.508;18.118;2023-02-20T09:23:12;99.85;;;66.78;;
23310;SDS011;11828;51.508;18.118;2023-02-20T09:25:38;86.53;;;60.65;;
23310;SDS011;11828;51.508;18.118;2023-02-20T09:28:05;85.35;;;63.03;;
23310;SDS011;11828;51.508;18.118;2023-02-20T09:30:31;67.28;;;58.25;;
23310;SDS011;11828;51.508;18.118;2023-02-20T09:32:57;87.22;;;62.42;;
23310;SDS011;11828;51.508;18.118;2023-02-20T09:35:27;100.40;;;60.42;;
23310;SDS011;11828;51.508;18.118;2023-02-20T09:37:55;87.30;;;62.85;;
23310;SDS011;11828;51.508;18.118;2023-02-20T09:40:23;117.15;;;65.60;;
23310;SDS011;11828;51.508;18.118;2023-02-20T09:43:04;97.85;;;68.82;;
23310;SDS011;11828;51.508;18.118;2023-02-20T09:45:52;97.15;;;70.25;;
23310;SDS011;11828;51.508;18.118;2023-02-20T09:49:28;83.95;;;57.92;;
23310;SDS011;11828;51.508;18.118;2023-02-20T09:51:40;97.88;;;69.03;;
23310;SDS011;11828;51.508;18.118;2023-02-20T09:57:02;113.60;;;69.88;;
23310;SDS011;11828;51.508;18.118;2023-02-20T09:59:39;181.65;;;76.80;;
23310;SDS011;11828;51.508;18.118;2023-02-20T10:02:26;66.00;;;51.55;;
23310;SDS011;11828;51.508;18.118;2023-02-20T10:04:57;46.50;;;37.83;;
23310;SDS011;11828;51.508;18.118;2023-02-20T10:07:31;50.63;;;35.85;;
23310;SDS011;11828;51.508;18.118;2023-02-20T10:10:06;28.27;;;21.40;;
23310;SDS011;11828;51.508;18.118;2023-02-20T10:19:06;37.50;;;17.75;;
23310;SDS011;11828;51.508;18.118;2023-02-20T10:33:37;42.35;;;35.95;;
23310;SDS011;11828;51.508;18.118;2023-02-20T10:39:09;44.20;;;24.60;;
23310;SDS011;11828;51.508;18.118;2023-02-20T10:41:43;36.67;;;22.20;;
23310;SDS011;11828;51.508;18.118;2023-02-20T10:52:23;44.58;;;35.83;;
23310;SDS011;11828;51.508;18.118;2023-02-20T10:55:03;27.77;;;20.67;;
23310;SDS011;11828;51.508;18.118;2023-02-20T10:57:39;39.35;;;27.58;;
23310;SDS011;11828;51.508;18.118;2023-02-20T11:00:38;36.97;;;27.60;;
23310;SDS011;11828;51.508;18.118;2023-02-20T11:03:35;33.25;;;20.65;;
23310;SDS011;11828;51.508;18.118;2023-02-20T11:06:28;25.73;;;17.45;;
23310;SDS011;11828;51.508;18.118;2023-02-20T11:09:01;25.85;;;10.45;;
23310;SDS011;11828;51.508;18.118;2023-02-20T11:14:00;36.05;;;22.20;;
23310;SDS011;11828;51.508;18.118;2023-02-20T11:16:53;30.38;;;20.40;;
23310;SDS011;11828;51.508;18.118;2023-02-20T11:19:30;29.02;;;21.00;;
23310;SDS011;11828;51.508;18.118;2023-02-20T11:22:07;67.28;;;55.67;;
23310;SDS011;11828;51.508;18.118;2023-02-20T11:24:35;41.30;;;33.38;;
23310;SDS011;11828;51.508;18.118;2023-02-20T11:27:14;39.63;;;27.15;;
23310;SDS011;11828;51.508;18.118;2023-02-20T11:29:59;44.22;;;35.28;;
23310;SDS011;11828;51.508;18.118;2023-02-20T11:32:41;62.03;;;45.45;;
23310;SDS011;11828;51.508;18.118;2023-02-20T11:37:44;47.95;;;39.75;;
23310;SDS011;11828;51.508;18.118;2023-02-20T11:40:26;59.75;;;47.50;;
23310;SDS011;11828;51.508;18.118;2023-02-20T11:43:07;63.70;;;52.90;;
23310;SDS011;11828;51.508;18.118;2023-02-20T11:45:47;94.05;;;61.75;;
23310;SDS011;11828;51.508;18.118;2023-02-20T11:48:15;87.18;;;56.85;;
23310;SDS011;11828;51.508;18.118;2023-02-20T11:50:45;90.03;;;58.92;;
23310;SDS011;11828;51.508;18.118;2023-02-20T11:53:18;70.45;;;54.22;;
23310;SDS011;11828;51.508;18.118;2023-02-20T11:56:05;74.65;;;53.67;;
23310;SDS011;11828;51.508;18.118;2023-02-20T11:58:39;59.80;;;49.22;;
23310;SDS011;11828;51.508;18.118;2023-02-20T12:01:11;95.70;;;60.38;;
23310;SDS011;11828;51.508;18.118;2023-02-20T12:04:12;92.07;;;60.67;;
23310;SDS011;11828;51.508;18.118;2023-02-20T12:06:46;152.05;;;75.38;;
23310;SDS011;11828;51.508;18.118;2023-02-20T12:09:23;47.92;;;33.05;;
23310;SDS011;11828;51.508;18.118;2023-02-20T12:11:53;37.45;;;33.45;;
23310;SDS011;11828;51.508;18.118;2023-02-20T12:14:22;34.80;;;27.63;;
23310;SDS011;11828;51.508;18.118;2023-02-20T12:22:27;32.40;;;19.23;;
23310;SDS011;11828;51.508;18.118;2023-02-20T12:25:14;47.53;;;27.38;;
23310;SDS011;11828;51.508;18.118;2023-02-20T12:30:58;37.97;;;16.42;;
23310;SDS011;11828;51.508;18.118;2023-02-20T12:39:45;24.60;;;7.97;;
23310;SDS011;11828;51.508;18.118;2023-02-20T12:54:03;28.67;;;13.98;;
23310;SDS011;11828;51.508;18.118;2023-02-20T12:57:22;19.45;;;8.93;;
23310;SDS011;11828;51.508;18.118;2023-02-20T13:03:18;25.90;;;8.75;;
23310;SDS011;11828;51.508;18.118;2023-02-20T13:05:46;25.38;;;10.75;;
23310;SDS011;11828;51.508;18.118;2023-02-20T13:08:17;23.95;;;16.00;;
23310;SDS011;11828;51.508;18.118;2023-02-20T13:10:59;22.17;;;10.35;;
23310;SDS011;11828;51.508;18.118;2023-02-20T13:14:33;28.80;;;7.10;;
23310;SDS011;11828;51.508;18.118;2023-02-20T13:16:41;23.20;;;8.10;;
23310;SDS011;11828;51.508;18.118;2023-02-20T13:22:14;19.30;;;5.75;;
23310;SDS011;11828;51.508;18.118;2023-02-20T13:24:41;21.60;;;6.07;;
23310;SDS011;11828;51.508;18.118;2023-02-20T13:27:08;20.30;;;6.05;;
23310;SDS011;11828;51.508;18.118;2023-02-20T13:30:11;22.08;;;5.28;;
23310;SDS011;11828;51.508;18.118;2023-02-20T13:32:46;14.80;;;6.07;;
23310;SDS011;11828;51.508;18.118;2023-02-20T13:38:13;19.27;;;5.00;;
23310;SDS011;11828;51.508;18.118;2023-02-20T13:41:03;20.15;;;5.78;;
23310;SDS011;11828;51.508;18.118;2023-02-20T13:43:33;18.48;;;4.38;;
23310;SDS011;11828;51.508;18.118;2023-02-20T13:48:40;20.40;;;7.20;;
23310;SDS011;11828;51.508;18.118;2023-02-20T13:53:49;29.58;;;25.73;;
23310;SDS011;11828;51.508;18.118;2023-02-20T13:56:52;46.95;;;29.38;;
23310;SDS011;11828;51.508;18.118;2023-02-20T13:59:23;39.45;;;27.65;;
23310;SDS011;11828;51.508;18.118;2023-02-20T14:01:56;71.90;;;47.67;;
23310;SDS011;11828;51.508;18.118;2023-02-20T14:04:23;63.45;;;34.90;;
23310;SDS011;11828;51.508;18.118;2023-02-20T14:06:50;64.47;;;36.45;;
23310;SDS011;11828;51.508;18.118;2023-02-20T14:09:21;88.10;;;54.25;;
23310;SDS011;11828;51.508;18.118;2023-02-20T14:11:54;116.53;;;62.30;;
23310;SDS011;11828;51.508;18.118;2023-02-20T14:14:34;87.15;;;55.30;;
23310;SDS011;11828;51.508;18.118;2023-02-20T14:17:07;124.05;;;63.03;;
23310;SDS011;11828;51.508;18.118;2023-02-20T14:19:54;116.85;;;65.85;;
23310;SDS011;11828;51.508;18.118;2023-02-20T14:22:28;129.90;;;65.28;;
23310;SDS011;11828;51.508;18.118;2023-02-20T14:27:51;64.45;;;52.67;;
23310;SDS011;11828;51.508;18.118;2023-02-20T14:30:31;101.60;;;61.30;;
23310;SDS011;11828;51.508;18.118;2023-02-20T14:32:58;142.70;;;70.65;;
23310;SDS011;11828;51.508;18.118;2023-02-20T14:38:59;43.85;;;31.60;;
23310;SDS011;11828;51.508;18.118;2023-02-20T14:41:53;57.28;;;33.40;;
23310;SDS011;11828;51.508;18.118;2023-02-20T14:44:25;68.72;;;44.92;;
23310;SDS011;11828;51.508;18.118;2023-02-20T14:46:54;90.85;;;57.00;;
23310;SDS011;11828;51.508;18.118;2023-02-20T14:49:33;54.92;;;29.25;;
23310;SDS011;11828;51.508;18.118;2023-02-20T14:54:34;78.72;;;51.25;;
23310;SDS011;11828;51.508;18.118;2023-02-20T14:57:05;75.53;;;50.20;;
23310;SDS011;11828;51.508;18.118;2023-02-20T14:59:36;135.38;;;65.18;;
23310;SDS011;11828;51.508;18.118;2023-02-20T15:05:06;63.78;;;46.25;;
23310;SDS011;11828;51.508;18.118;2023-02-20T15:07:36;90.40;;;60.75;;
23310;SDS011;11828;51.508;18.118;2023-02-20T15:10:05;81.53;;;59.45;;
23310;SDS011;11828;51.508;18.118;2023-02-20T15:13:01;85.18;;;55.33;;
23310;SDS011;11828;51.508;18.118;2023-02-20T15:15:50;68.72;;;48.60;;
23310;SDS011;11828;51.508;18.118;2023-02-20T15:18:35;104.22;;;61.25;;
23310;SDS011;11828;51.508;18.118;2023-02-20T15:21:03;137.85;;;70.88;;
23310;SDS011;11828;51.508;18.118;2023-02-20T15:23:32;150.27;;;72.55;;
23310;SDS011;11828;51.508;18.118;2023-02-20T15:31:45;153.32;;;72.65;;
23310;SDS011;11828;51.508;18.118;2023-02-20T15:34:25;185.13;;;79.85;;
23310;SDS011;11828;51.508;18.118;2023-02-20T15:36:55;213.23;;;80.70;;
23310;SDS011;11828;51.508;18.118;2023-02-20T15:39:23;115.03;;;70.93;;
23310;SDS011;11828;51.508;18.118;2023-02-20T15:41:49;134.07;;;70.90;;
23310;SDS011;11828;51.508;18.118;2023-02-20T15:44:16;86.97;;;62.22;;
23310;SDS011;11828;51.508;18.118;2023-02-20T15:46:42;171.93;;;70.40;;
23310;SDS011;11828;51.508;18.118;2023-02-20T15:49:08;202.98;;;79.20;;
23310;SDS011;11828;51.508;18.118;2023-02-20T15:51:39;198.43;;;80.20;;
23310;SDS011;11828;51.508;18.118;2023-02-20T15:54:08;222.02;;;78.40;;
23310;SDS011;11828;51.508;18.118;2023-02-20T15:56:41;187.43;;;82.85;;
23310;SDS011;11828;51.508;18.118;2023-02-20T15:59:08;209.88;;;76.10;;
23310;SDS011;11828;51.508;18.118;2023-02-20T16:01:36;216.60;;;78.22;;
23310;SDS011;11828;51.508;18.118;2023-02-20T16:04:06;232.40;;;81.00;;
23310;SDS011;11828;51.508;18.118;2023-02-20T16:06:33;233.88;;;81.18;;
23310;SDS011;11828;51.508;18.118;2023-02-20T16:09:00;236.40;;;81.60;;
23310;SDS011;11828;51.508;18.118;2023-02-20T16:11:27;242.38;;;82.35;;
23310;SDS011;11828;51.508;18.118;2023-02-20T16:14:02;213.70;;;77.60;;
23310;SDS011;11828;51.508;18.118;2023-02-20T16:19:03;202.57;;;89.45;;
23310;SDS011;11828;51.508;18.118;2023-02-20T16:21:43;200.65;;;81.95;;
23310;SDS011;11828;51.508;18.118;2023-02-20T16:24:11;149.13;;;67.75;;
23310;SDS011;11828;51.508;18.118;2023-02-20T16:26:38;147.98;;;73.72;;
23310;SDS011;11828;51.508;18.118;2023-02-20T16:29:08;204.35;;;81.28;;
23310;SDS011;11828;51.508;18.118;2023-02-20T16:34:21;230.20;;;80.22;;
23310;SDS011;11828;51.508;18.118;2023-02-20T16:36:50;237.32;;;82.95;;
23310;SDS011;11828;51.508;18.118;2023-02-20T16:39:18;226.38;;;79.30;;
23310;SDS011;11828;51.508;18.118;2023-02-20T16:41:45;235.05;;;80.00;;
23310;SDS011;11828;51.508;18.118;2023-02-20T16:44:12;234.45;;;89.35;;
23310;SDS011;11828;51.508;18.118;2023-02-20T16:46:43;236.90;;;78.90;;
23310;SDS011;11828;51.508;18.118;2023-02-20T16:49:12;233.90;;;77.13;;
23310;SDS011;11828;51.508;18.118;2023-02-20T16:51:40;238.40;;;78.63;;